createdAt,value
2019-04-25T00:00:28.438Z,14.1
2019-04-25T00:05:31.086Z,14
2019-04-25T00:10:33.282Z,14
2019-04-25T00:15:35.757Z,13.9
2019-04-25T00:20:38.910Z,13.8
2019-04-25T00:25:44.349Z,13.7
2019-04-25T00:30:43.758Z,13.7
2019-04-25T00:35:45.723Z,13.6
2019-04-25T00:40:48.090Z,13.6
2019-04-25T00:45:51.590Z,13.5
2019-04-25T00:50:54.504Z,13.4
2019-04-25T00:55:55.273Z,13.4
2019-04-25T01:00:57.801Z,13.3
2019-04-25T01:06:03.328Z,13.2
2019-04-25T01:11:02.645Z,13.1
2019-04-25T01:16:05.050Z,12.9
2019-04-25T01:21:07.463Z,12.7
2019-04-25T01:26:09.934Z,12.5
2019-04-25T01:31:13.706Z,12.3
2019-04-25T01:36:14.796Z,12.3
2019-04-25T01:41:17.230Z,12.2
2019-04-25T01:46:19.650Z,12.3
2019-04-25T01:51:23.843Z,12.3
2019-04-25T01:56:24.824Z,12.3
2019-04-25T02:01:26.974Z,12.3
2019-04-25T02:06:29.406Z,12.3
2019-04-25T02:11:31.917Z,12.2
2019-04-25T02:16:35.345Z,12.2
2019-04-25T02:21:36.764Z,12.1
2019-04-25T02:26:39.165Z,12
2019-04-25T02:31:41.634Z,11.9
2019-04-25T02:36:46.818Z,11.6
2019-04-25T02:41:46.530Z,11.4
2019-04-25T02:46:48.926Z,11.2
2019-04-25T02:51:51.572Z,11.1
2019-04-25T02:56:54.681Z,11
2019-04-25T03:01:57.518Z,10.9
2019-04-25T03:07:00.165Z,10.8
2019-04-25T03:12:01.702Z,10.9
2019-04-25T03:17:05.170Z,10.9
2019-04-25T03:22:09.261Z,10.9
2019-04-25T03:27:09.136Z,10.8
2019-04-25T03:32:14.223Z,10.7
2019-04-25T03:37:13.787Z,10.5
2019-04-25T03:42:15.767Z,10.4
2019-04-25T03:47:18.268Z,10.3
2019-04-25T03:57:23.354Z,10.4
2019-04-25T04:02:25.545Z,10.4
2019-04-25T04:07:27.960Z,10.2
2019-04-25T04:12:30.445Z,10.1
2019-04-25T04:17:33.854Z,10.1
2019-04-25T04:22:35.352Z,10.1
2019-04-25T04:27:37.859Z,10.1
2019-04-25T04:32:40.154Z,10.1
2019-04-25T04:37:43.133Z,10.2
2019-04-25T04:42:45.285Z,10.3
2019-04-25T04:47:47.482Z,10.5
2019-04-25T04:52:49.935Z,10.6
2019-04-25T04:57:52.354Z,10.6
2019-04-25T05:02:54.812Z,10.7
2019-04-25T05:07:57.309Z,10.7
2019-04-25T05:12:59.745Z,10.8
2019-04-25T05:18:03.852Z,10.9
2019-04-25T05:23:04.656Z,11
2019-04-25T05:33:09.445Z,11.4
2019-04-25T05:38:13.482Z,11.6
2019-04-25T05:43:15.073Z,11.8
2019-04-25T05:48:17.173Z,12
2019-04-25T05:53:19.778Z,12.2
2019-04-25T05:58:22.806Z,12.3
2019-04-25T06:03:25.231Z,12.4
2019-04-25T06:08:26.836Z,12.4
2019-04-25T06:13:29.079Z,12.4
2019-04-25T06:18:32.037Z,12.4
2019-04-25T06:23:34.102Z,12.4
2019-04-25T06:28:48.963Z,12.6
2019-04-25T06:33:38.736Z,12.7
2019-04-25T06:38:41.350Z,12.9
2019-04-25T06:43:44.203Z,13
2019-04-25T06:48:46.478Z,13.1
2019-04-25T06:58:50.962Z,13.4
2019-04-25T07:03:53.977Z,13.5
2019-04-25T07:08:56.047Z,13.6
2019-04-25T07:13:58.252Z,13.6
2019-04-25T07:19:01.158Z,13.7
2019-04-25T07:24:04.141Z,13.6
2019-04-25T07:29:05.655Z,13.6
2019-04-25T07:34:08.258Z,13.6
2019-04-25T07:39:10.981Z,13.7
2019-04-25T07:44:14.632Z,13.8
2019-04-25T07:49:15.373Z,13.9
2019-04-25T07:54:17.784Z,14
2019-04-25T07:59:20.290Z,14
2019-04-25T08:04:23.559Z,14.1
2019-04-25T08:09:25.281Z,14.1
2019-04-25T08:14:28.528Z,14.2
2019-04-25T08:19:30.952Z,14.2
2019-04-25T08:24:34.834Z,14.3
2019-04-25T08:29:37.906Z,14.3
2019-04-25T08:34:37.409Z,14.3
2019-04-25T08:39:39.856Z,14.3
2019-04-25T08:44:43.680Z,14.3
2019-04-25T08:49:45.897Z,14.4
2019-04-25T08:54:47.637Z,14.5
2019-04-25T08:59:52.566Z,14.6
2019-04-25T09:09:54.530Z,14.9
2019-04-25T09:14:56.840Z,15
2019-04-25T09:20:00.315Z,15.2
2019-04-25T09:25:01.755Z,15.4
2019-04-25T09:30:05.741Z,15.5
2019-04-25T09:35:06.626Z,15.7
2019-04-25T09:40:09.527Z,15.9
2019-04-25T09:45:13.314Z,16.1
2019-04-25T09:50:13.991Z,16.3
2019-04-25T09:55:16.437Z,16.6
2019-04-25T10:00:19.177Z,16.7
2019-04-25T10:05:21.251Z,16.9
2019-04-25T10:10:24.153Z,17
2019-04-25T10:15:26.184Z,17.2
2019-04-25T10:20:28.963Z,17.4
2019-04-25T10:25:31.082Z,17.6
2019-04-25T10:30:34.271Z,17.9
2019-04-25T10:35:46.576Z,18.2
2019-04-25T10:40:39.315Z,18.7
2019-04-25T10:45:42.096Z,19.1
2019-04-25T10:50:43.877Z,19.5
2019-04-25T10:55:47.596Z,20
2019-04-25T11:00:48.658Z,20.5
2019-04-25T11:05:50.600Z,20.9
2019-04-25T11:10:54.593Z,21.3
2019-04-25T11:15:56.131Z,21.6
2019-04-25T11:20:57.908Z,22
2019-04-25T11:31:04.092Z,22.5
2019-04-25T11:36:05.237Z,22.7
2019-04-25T11:41:08.007Z,22.6
2019-04-25T11:46:11.558Z,22.6
2019-04-25T11:51:13.813Z,22.9
2019-04-25T11:56:18.999Z,23.2
2019-04-25T12:01:17.484Z,23.5
2019-04-25T12:06:19.813Z,23.9
2019-04-25T12:11:23.488Z,23.9
2019-04-25T12:16:24.782Z,24
2019-04-25T12:21:27.261Z,24.2
2019-04-25T12:26:29.800Z,24.2
2019-04-25T12:31:32.014Z,24.4
2019-04-25T12:36:34.461Z,24.7
2019-04-25T12:41:36.948Z,25
2019-04-25T12:46:39.428Z,25.1
2019-04-25T12:51:41.787Z,25.4
2019-04-25T12:56:44.246Z,25.6
2019-04-25T13:01:46.706Z,25.7
2019-04-25T13:06:49.117Z,26.1
2019-04-25T13:11:53.285Z,26.5
2019-04-25T13:16:53.982Z,26.8
2019-04-25T13:21:57.042Z,27.4
2019-04-25T13:26:58.912Z,28
2019-04-25T13:32:01.517Z,28.8
2019-04-25T13:37:05.228Z,29.5
2019-04-25T13:42:06.727Z,30.1
2019-04-25T13:47:08.878Z,30.3
2019-04-25T13:52:11.164Z,30.5
2019-04-25T13:57:13.547Z,30.7
2019-04-25T14:02:16.089Z,31.3
2019-04-25T14:07:18.544Z,32.1
2019-04-25T14:12:21.417Z,32.2
2019-04-25T14:17:24.729Z,32.7
2019-04-25T14:22:25.737Z,34.3
2019-04-25T14:27:37.877Z,35
2019-04-25T14:32:30.621Z,35.7
2019-04-25T14:37:39.165Z,36.3
2019-04-25T14:42:35.752Z,36.7
2019-04-25T14:47:38.183Z,36.3
2019-04-25T14:52:40.824Z,35.2
2019-04-25T14:57:42.977Z,34.8
2019-04-25T15:02:45.521Z,34.1
2019-04-25T15:07:48.290Z,33.5
2019-04-25T15:12:50.190Z,33.4
2019-04-25T15:17:52.655Z,34.2
2019-04-25T15:22:55.059Z,35.5
2019-04-25T15:27:57.784Z,36.7
2019-04-25T15:32:59.958Z,37.1
2019-04-25T15:38:02.419Z,37.1
2019-04-25T15:43:04.894Z,36
2019-04-25T15:53:10.000Z,31.5
2019-04-25T15:58:12.230Z,30.4
2019-04-25T16:03:14.591Z,30
2019-04-25T16:08:17.031Z,29.9
2019-04-25T16:13:19.475Z,30.3
2019-04-25T16:18:21.922Z,29.7
2019-04-25T16:23:24.353Z,28.6
2019-04-25T16:28:27.552Z,27.2
2019-04-25T16:33:29.272Z,26.1
2019-04-25T16:38:31.693Z,25.2
2019-04-25T16:48:36.733Z,24
2019-04-25T16:53:39.983Z,23.5
2019-04-25T16:58:41.468Z,23.1
2019-04-25T17:03:43.894Z,22.8
2019-04-25T17:08:46.449Z,22.5
2019-04-25T17:13:48.787Z,22.2
2019-04-25T17:18:51.206Z,22
2019-04-25T17:23:53.685Z,21.8
2019-04-25T17:28:56.134Z,21.6
2019-04-25T17:33:58.536Z,21.3
2019-04-25T17:39:01.009Z,21.1
2019-04-25T17:44:03.794Z,20.9
2019-04-25T17:49:05.873Z,20.7
2019-04-25T17:54:08.343Z,20.6
2019-04-25T17:59:10.741Z,20.4
2019-04-25T18:04:13.206Z,20.3
2019-04-25T18:09:15.656Z,20.1
2019-04-25T18:14:18.057Z,19.9
2019-04-25T18:19:20.589Z,19.8
2019-04-25T18:24:22.960Z,19.7
2019-04-25T18:29:25.399Z,19.5
2019-04-25T18:34:27.888Z,19.4
2019-04-25T18:39:30.342Z,19.3
2019-04-25T18:44:32.819Z,19.3
2019-04-25T18:49:36.337Z,19.2
2019-04-25T18:54:37.610Z,19.2
2019-04-25T18:59:40.123Z,19.1
2019-04-25T19:04:42.539Z,19.1
2019-04-25T19:09:45.014Z,19
2019-04-25T19:14:47.763Z,18.9
2019-04-25T19:19:50.013Z,18.9
2019-04-25T19:24:52.269Z,18.9
2019-04-25T19:29:54.731Z,18.8
2019-04-25T19:34:57.133Z,18.8
2019-04-25T19:39:59.812Z,18.7
2019-04-25T19:45:02.420Z,18.7
2019-04-25T19:50:04.623Z,18.6
2019-04-25T19:55:07.032Z,18.6
2019-04-25T20:00:09.343Z,18.5
2019-04-25T20:05:11.886Z,18.5
2019-04-25T20:10:14.235Z,18.4
2019-04-25T20:15:16.983Z,18.3
2019-04-25T20:20:19.122Z,18.2
2019-04-25T20:25:21.836Z,18.1
2019-04-25T20:30:24.016Z,18
2019-04-25T20:35:26.496Z,17.8
2019-04-25T20:40:28.929Z,17.7
2019-04-25T20:45:31.640Z,17.6
2019-04-25T20:50:33.763Z,17.5
2019-04-25T21:00:39.934Z,17.5
2019-04-25T21:05:41.082Z,17.5
2019-04-25T21:10:43.589Z,17.5
2019-04-25T21:15:45.958Z,17.5
2019-04-25T21:20:48.408Z,17.6
2019-04-25T21:25:51.592Z,17.5
2019-04-25T21:30:53.288Z,17.5
2019-04-25T21:35:55.987Z,17.5
2019-04-25T21:40:58.153Z,17.5
2019-04-25T21:46:01.287Z,17.4
2019-04-25T21:51:03.475Z,17.4
2019-04-25T21:56:06.883Z,17.4
2019-04-25T22:01:07.916Z,17.3
2019-04-25T22:06:10.446Z,17.2
2019-04-25T22:11:12.801Z,17.2
2019-04-25T22:16:15.363Z,17.2
2019-04-25T22:21:17.673Z,17.2
2019-04-25T22:26:20.192Z,17.2
2019-04-25T22:31:22.658Z,17.2
2019-04-25T22:36:25.033Z,17.2
2019-04-25T22:41:27.480Z,17.2
2019-04-25T22:46:29.942Z,17.1
2019-04-25T22:51:32.321Z,17
2019-04-25T22:56:34.798Z,16.8
2019-04-25T23:01:37.281Z,16.8
2019-04-25T23:06:39.831Z,16.7
2019-04-25T23:11:42.143Z,16.6
2019-04-25T23:16:44.595Z,16.6
2019-04-25T23:21:47.357Z,16.5
2019-04-25T23:26:49.405Z,16.4
2019-04-25T23:31:51.844Z,16.4
2019-04-25T23:36:54.415Z,16.4
2019-04-25T23:41:56.863Z,16.4
2019-04-25T23:46:59.177Z,16.3
2019-04-25T23:52:01.653Z,16.3
2019-04-25T23:57:04.104Z,16.2
